Thorp, Wisconsin
Current Conditions -  °F | °C
As of 8:35 PM on Wednesday 22 Oct 2014 (Local Time) from KMDZ Reporting Station
Clear Clear  
Wind Chill: 41°   Ceiling: Unl
Heat Index: 45°   Visibility: 10mi
Dew Point: 35°   Wind: 7mph
Humidity: 68%   Direction: 140°SE
Pressure: 30.17"   Gusts: NA
Location:  44.96°N, 90.8°W
Report Text: KMDZ 230135Z AUTO 14006KT 10SM CLR 07/02 A3017 RMK AO2 T00710016
Loading
Personal Weather Stations






























Interactive Weather Map
Tropical Storm Tracking
New forecast layout! Learn more

10-Day Weather Forecast

Advertisements
Track Severe Weather on mobile